Time;durP1;ratioP1;P1;durP2;ratioP2;P2;SDS_P1;SDS_P2;PMS_P1;PMS_P2;Temp;Humidity;BMP_temperature;BMP_pressure;BME280_temperature;BME280_humidity;BME280_pressure;Samples;Min_cycle;Max_cycle;Signal;HPM_P1;HPM_P2
2022/12/30 00:02:22;;;;;;;13.63;2.90;;;;;;;6.84;100.00;100802.66;2614275;36;20034;-59
2022/12/30 00:04:51;;;;;;;13.70;2.20;;;;;;;6.84;100.00;100813.38;2614637;36;20037;-59
2022/12/30 00:07:19;;;;;;;12.32;2.33;;;;;;;6.84;100.00;100808.84;2614525;36;20061;-57
2022/12/30 00:09:48;;;;;;;10.18;2.42;;;;;;;6.86;100.00;100808.78;2614469;36;20030;-59
2022/12/30 00:34:12;;;;;;;14.77;2.40;;;;;;;6.79;100.00;100836.94;2613688;31;20034;-59
2022/12/30 00:36:41;;;;;;;12.65;2.20;;;;;;;6.80;100.00;100827.94;2614089;36;20038;-60
2022/12/30 00:39:09;;;;;;;12.05;2.55;;;;;;;6.74;100.00;100831.06;2614212;36;20030;-59
2022/12/30 00:44:18;;;;;;;16.17;2.00;;;;;;;6.61;100.00;100834.63;2613176;36;20030;-59
2022/12/30 00:46:47;;;;;;;11.48;2.80;;;;;;;6.56;100.00;100842.13;2613554;36;20046;-59
2022/12/30 00:57:21;;;;;;;16.92;2.47;;;;;;;6.62;100.00;100851.53;2613768;36;20125;-60
2022/12/30 00:59:50;;;;;;;12.95;2.15;;;;;;;6.56;100.00;100847.47;2613601;36;20035;-59
2022/12/30 01:02:18;;;;;;;12.13;2.13;;;;;;;6.63;100.00;100851.41;2613569;31;20042;-59
2022/12/30 01:04:49;;;;;;;10.60;2.53;;;;;;;6.68;100.00;100856.41;2614000;36;20306;-59
2022/12/30 01:07:27;;;;;;;14.68;2.35;;;;;;;6.57;100.00;100859.88;2613662;36;20030;-60
2022/12/30 01:09:55;;;;;;;16.50;2.80;;;;;;;6.58;100.00;100866.94;2613353;36;20037;-60
2022/12/30 01:12:24;;;;;;;10.60;2.55;;;;;;;6.70;100.00;100864.34;2613320;31;20038;-59
2022/12/30 01:14:59;;;;;;;13.70;2.57;;;;;;;6.60;100.00;100862.34;2613270;36;20030;-60
2022/12/30 01:17:31;;;;;;;13.80;2.05;;;;;;;6.59;100.00;100862.44;2612707;36;20057;-59
2022/12/30 01:20:04;;;;;;;10.00;2.25;;;;;;;6.55;100.00;100872.53;2613401;36;20057;-60
2022/12/30 01:22:33;;;;;;;6.95;2.30;;;;;;;6.54;100.00;100886.00;2613420;36;20030;-59
2022/12/30 01:25:01;;;;;;;12.93;2.22;;;;;;;6.45;100.00;100888.34;2612843;36;20645;-59
2022/12/30 01:27:30;;;;;;;10.55;2.05;;;;;;;6.54;100.00;100892.19;2613026;36;20045;-59
2022/12/30 01:29:58;;;;;;;16.15;2.72;;;;;;;6.36;100.00;100888.13;2613828;36;20040;-58
2022/12/30 01:32:30;;;;;;;12.70;1.97;;;;;;;6.35;100.00;100892.66;2614019;36;20035;-58
2022/12/30 01:35:02;;;;;;;10.30;1.80;;;;;;;6.31;100.00;100885.78;2613080;36;20030;-59
2022/12/30 01:37:30;;;;;;;11.25;2.35;;;;;;;6.36;100.00;100889.00;2614117;36;20039;-57
2022/12/30 01:40:01;;;;;;;13.75;1.90;;;;;;;6.33;100.00;100889.22;2614406;36;20605;-57
2022/12/30 01:42:32;;;;;;;11.90;2.88;;;;;;;6.32;100.00;100893.69;2613481;36;20030;-59
2022/12/30 01:45:02;;;;;;;7.85;1.75;;;;;;;6.35;100.00;100895.31;2629820;36;20562;-58
2022/12/30 01:47:36;;;;;;;7.72;2.20;;;;;;;6.35;100.00;100894.47;2613660;36;20031;-58
2022/12/30 01:50:24;;;;;;;17.30;2.45;;;;;;;6.25;100.00;100892.41;2613779;31;20035;-59
2022/12/30 01:53:00;;;;;;;10.55;1.70;;;;;;;6.32;100.00;100890.19;2613779;36;20559;-58
2022/12/30 01:55:34;;;;;;;11.27;2.65;;;;;;;6.29;100.00;100875.22;2613046;36;20034;-59
2022/12/30 01:58:06;;;;;;;9.63;2.08;;;;;;;6.34;100.00;100882.91;2614014;36;20030;-59
2022/12/30 02:00:34;;;;;;;6.38;2.05;;;;;;;6.38;100.00;100881.72;2614597;36;20030;-59
2022/12/30 02:03:03;;;;;;;8.33;1.80;;;;;;;6.28;100.00;100884.19;2614373;36;20030;-58
2022/12/30 02:05:35;;;;;;;8.98;2.28;;;;;;;6.32;100.00;100888.34;2614883;36;20303;-58
2022/12/30 02:08:09;;;;;;;10.95;1.88;;;;;;;6.25;100.00;100880.88;2615436;36;20041;-57
2022/12/30 02:10:40;;;;;;;11.35;2.05;;;;;;;6.19;100.00;100887.50;2614660;36;20034;-58
2022/12/30 02:13:08;;;;;;;10.82;2.50;;;;;;;6.17;100.00;100884.09;2614957;36;20077;-57
2022/12/30 02:15:53;;;;;;;14.73;2.60;;;;;;;6.16;100.00;100877.03;2614817;36;20049;-60
2022/12/30 02:18:30;;;;;;;9.30;2.95;;;;;;;6.26;100.00;100878.09;2614367;36;20563;-59
2022/12/30 02:21:29;;;;;;;18.55;3.03;;;;;;;6.20;100.00;100881.22;2616189;31;20434;-58
2022/12/30 02:24:33;;;;;;;14.02;2.85;;;;;;;6.07;100.00;100877.69;2615060;36;20565;-58
2022/12/30 02:27:13;;;;;;;11.95;2.10;;;;;;;6.04;100.00;100868.06;2614053;36;20041;-59
2022/12/30 02:30:10;;;;;;;13.27;2.03;;;;;;;6.07;100.00;100875.00;2614307;36;20031;-59
2022/12/30 02:32:52;;;;;;;11.07;2.10;;;;;;;6.06;100.00;100859.94;2614966;31;20030;-58
2022/12/30 02:35:27;;;;;;;7.72;1.73;;;;;;;6.14;100.00;100871.81;2615239;36;20030;-58
2022/12/30 02:38:03;;;;;;;7.18;1.88;;;;;;;6.18;100.00;100875.09;2614443;36;20099;-59
2022/12/30 02:46:08;;;;;;;8.95;1.85;;;;;;;6.09;100.00;100851.69;2614036;36;20558;-59
2022/12/30 02:48:44;;;;;;;10.88;2.45;;;;;;;6.09;100.00;100841.84;2614635;36;20057;-58
2022/12/30 02:53:54;;;;;;;7.20;2.08;;;;;;;6.08;100.00;100832.16;2614152;36;20037;-59
2022/12/30 02:56:22;;;;;;;7.95;2.28;;;;;;;5.99;100.00;100831.94;2613576;36;20034;-58
2022/12/30 03:03:57;;;;;;;14.05;2.10;;;;;;;5.99;100.00;100832.78;2615263;36;20559;-58
2022/12/30 03:04:51;;;;;;;9.18;2.17;;;;;;;5.97;100.00;100840.06;2615018;36;20041;-58
2022/12/30 03:07:29;;;;;;;9.05;2.17;;;;;;;5.82;100.00;100833.94;2615259;31;20046;-58
2022/12/30 03:13:01;;;;;;;13.73;2.30;;;;;;;6.00;100.00;100849.69;2613430;31;20037;-59
2022/12/30 03:15:35;;;;;;;16.48;2.97;;;;;;;5.83;100.00;100849.00;2614867;36;20034;-58
2022/12/30 03:18:05;;;;;;;15.20;2.70;;;;;;;5.82;100.00;100847.28;2614925;36;20057;-59
2022/12/30 03:20:35;;;;;;;;;;;;;;;5.90;100.00;100842.28;2615152;36;20544;-59
2022/12/30 03:28:31;;;;;;;8.07;2.65;;;;;;;5.76;100.00;100859.25;2616147;36;20034;-60
2022/12/30 03:31:05;;;;;;;9.23;2.80;;;;;;;5.80;100.00;100870.59;2616575;36;20031;-59
2022/12/30 03:33:34;;;;;;;10.52;3.20;;;;;;;5.79;100.00;100875.06;2615807;36;20030;-58
2022/12/30 03:36:11;;;;;;;11.75;3.40;;;;;;;5.75;100.00;100868.19;2616456;36;20038;-58
2022/12/30 03:38:44;;;;;;;12.23;2.78;;;;;;;5.82;100.00;100865.13;2615915;36;20113;-59
2022/12/30 03:41:13;;;;;;;10.40;2.80;;;;;;;5.83;100.00;100864.16;2615059;36;20034;-60
2022/12/30 03:43:43;;;;;;;;;;;;;;;5.84;100.00;100863.22;2616449;36;20042;-59
2022/12/30 03:46:11;;;;;;;9.38;2.88;;;;;;;5.78;100.00;100854.63;2615918;36;20451;-57
2022/12/30 03:48:40;;;;;;;11.57;3.13;;;;;;;5.79;100.00;100844.84;2615798;31;20042;-65
2022/12/30 03:51:11;;;;;;;15.07;3.58;;;;;;;5.82;100.00;100844.63;2616380;36;20039;-59
2022/12/30 03:53:39;;;;;;;10.13;3.35;;;;;;;5.86;100.00;100842.56;2615540;36;20554;-60
2022/12/30 03:56:08;;;;;;;8.73;3.10;;;;;;;5.82;100.00;100847.28;2614762;36;20030;-60
2022/12/30 03:58:37;;;;;;;8.90;2.47;;;;;;;5.87;100.00;100849.63;2615074;36;20042;-59
2022/12/30 04:01:05;;;;;;;16.83;3.40;;;;;;;5.77;100.00;100841.38;2616147;36;20034;-60
2022/12/30 04:03:33;;;;;;;16.30;3.20;;;;;;;5.69;100.00;100841.94;2615495;36;20034;-60
2022/12/30 04:06:02;;;;;;;6.70;2.40;;;;;;;5.74;100.00;100842.47;2616246;36;20122;-60
2022/12/30 04:08:33;;;;;;;11.10;2.67;;;;;;;5.72;100.00;100841.72;2616252;36;20282;-60
2022/12/30 04:11:01;;;;;;;10.27;2.90;;;;;;;5.70;100.00;100840.13;2615555;36;20030;-59
2022/12/30 04:13:29;;;;;;;9.55;2.95;;;;;;;5.60;100.00;100848.75;2616020;36;20035;-59
2022/12/30 04:15:58;;;;;;;8.15;2.50;;;;;;;5.61;100.00;100850.47;2616255;36;20023;-59
2022/12/30 04:18:26;;;;;;;19.13;3.92;;;;;;;5.70;100.00;100853.47;2615070;36;20622;-59
2022/12/30 04:20:55;;;;;;;12.98;3.47;;;;;;;5.85;100.00;100856.91;2616171;36;20030;-60
2022/12/30 04:23:23;;;;;;;9.85;2.50;;;;;;;5.81;100.00;100850.91;2615991;36;20023;-59
2022/12/30 04:25:54;;;;;;;11.60;3.20;;;;;;;5.56;100.00;100849.91;2615590;36;20042;-59
2022/12/30 04:28:22;;;;;;;10.18;3.05;;;;;;;5.61;100.00;100849.63;2615083;31;20022;-59
2022/12/30 04:30:51;;;;;;;9.55;2.58;;;;;;;5.56;100.00;100855.25;2616043;36;20042;-58
2022/12/30 04:33:19;;;;;;;13.98;3.17;;;;;;;5.58;100.00;100856.03;2615634;36;20137;-59
2022/12/30 04:35:48;;;;;;;11.57;2.85;;;;;;;5.50;100.00;100842.31;2615653;36;20042;-59
2022/12/30 04:38:16;;;;;;;10.75;2.75;;;;;;;5.59;100.00;100847.06;2615339;36;20023;-58
2022/12/30 04:40:44;;;;;;;13.30;3.08;;;;;;;5.57;100.00;100846.28;2615503;31;20053;-60
2022/12/30 04:43:15;;;;;;;12.45;2.47;;;;;;;5.64;100.00;100840.53;2615261;36;20027;-59
2022/12/30 04:45:43;;;;;;;9.32;2.65;;;;;;;5.59;100.00;100846.19;2615926;36;20034;-59
2022/12/30 04:48:12;;;;;;;10.75;2.83;;;;;;;5.73;100.00;100854.13;2615352;36;20034;-59
2022/12/30 04:50:44;;;;;;;10.88;2.67;;;;;;;5.73;100.00;100847.94;2615507;36;20030;-59
2022/12/30 04:53:12;;;;;;;12.85;3.00;;;;;;;5.67;100.00;100853.66;2615942;36;20575;-59
2022/12/30 04:55:41;;;;;;;15.93;2.65;;;;;;;5.62;100.00;100856.66;2614463;36;20031;-59
2022/12/30 04:58:09;;;;;;;15.55;3.00;;;;;;;5.53;100.00;100860.78;2614853;36;20070;-59
2022/12/30 05:00:40;;;;;;;9.00;2.55;;;;;;;5.59;100.00;100852.41;2615882;36;20030;-59
2022/12/30 05:03:12;;;;;;;13.60;2.78;;;;;;;5.57;100.00;100853.44;2615398;36;20048;-60
2022/12/30 05:05:40;;;;;;;11.13;2.33;;;;;;;5.61;100.00;100857.63;2616017;31;20095;-59
2022/12/30 05:08:08;;;;;;;21.27;2.88;;;;;;;5.56;100.00;100860.59;2615740;36;20038;-59
2022/12/30 05:10:38;;;;;;;13.98;2.60;;;;;;;5.57;100.00;100848.97;2615055;36;20042;-59
2022/12/30 05:13:07;;;;;;;9.02;2.65;;;;;;;5.50;100.00;100847.66;2614559;36;20057;-58
2022/12/30 05:15:35;;;;;;;14.57;2.67;;;;;;;5.53;100.00;100847.44;2616054;36;20030;-59
2022/12/30 05:18:06;;;;;;;9.47;2.60;;;;;;;5.45;100.00;100855.13;2615741;36;20479;-59
2022/12/30 05:20:34;;;;;;;10.32;2.45;;;;;;;5.55;100.00;100844.69;2614939;36;20594;-59
2022/12/30 05:23:03;;;;;;;9.88;2.50;;;;;;;5.48;100.00;100843.38;2615822;36;20034;-59
2022/12/30 05:28:12;;;;;;;12.35;2.67;;;;;;;5.32;100.00;100830.22;2614976;36;20030;-59
2022/12/30 05:30:41;;;;;;;15.98;2.90;;;;;;;5.35;100.00;100838.88;2615465;36;20034;-59
2022/12/30 05:33:11;;;;;;;13.80;2.70;;;;;;;5.37;100.00;100833.44;2616229;36;20037;-59
2022/12/30 05:35:40;;;;;;;17.00;4.07;;;;;;;5.32;100.00;100833.75;2617107;36;20459;-59
2022/12/30 05:38:08;;;;;;;8.38;2.67;;;;;;;5.34;100.00;100836.31;2616608;36;20042;-59
2022/12/30 05:40:37;;;;;;;14.45;3.42;;;;;;;5.26;100.00;100842.16;2614615;36;20065;-58
2022/12/30 05:43:05;;;;;;;11.95;2.40;;;;;;;5.33;100.00;100834.59;2616012;36;20031;-59
2022/12/30 05:45:33;;;;;;;10.35;2.60;;;;;;;5.36;100.00;100829.03;2616350;36;20031;-59
2022/12/30 05:48:02;;;;;;;11.90;2.50;;;;;;;5.30;100.00;100832.13;2616172;36;20039;-59
2022/12/30 05:50:33;;;;;;;13.83;2.20;;;;;;;5.39;100.00;100826.19;2616928;36;20753;-59
2022/12/30 05:53:01;;;;;;;10.00;2.47;;;;;;;5.36;100.00;100815.69;2616916;36;20590;-59
2022/12/30 05:55:29;;;;;;;11.40;2.75;;;;;;;5.56;100.00;100820.53;2616051;36;20031;-57
2022/12/30 05:57:58;;;;;;;13.18;3.47;;;;;;;5.40;100.00;100819.88;2615708;36;20022;-58
2022/12/30 06:00:26;;;;;;;7.07;2.22;;;;;;;5.40;100.00;100814.53;2616016;36;20042;-59
2022/12/30 06:02:55;;;;;;;9.17;2.40;;;;;;;5.49;100.00;100808.59;2615674;36;20031;-58
2022/12/30 06:05:23;;;;;;;10.65;2.25;;;;;;;5.34;100.00;100809.63;2616323;36;20046;-58
2022/12/30 06:07:54;;;;;;;13.60;2.28;;;;;;;5.37;100.00;100812.09;2616987;36;20347;-58
2022/12/30 06:10:22;;;;;;;13.07;3.35;;;;;;;5.34;100.00;100806.94;2616210;31;20027;-58
2022/12/30 06:12:50;;;;;;;9.88;2.35;;;;;;;5.35;100.00;100800.66;2616143;36;20038;-58
2022/12/30 06:15:19;;;;;;;18.63;2.85;;;;;;;5.44;100.00;100808.03;2616472;36;20042;-59
2022/12/30 06:17:47;;;;;;;9.10;2.17;;;;;;;5.34;100.00;100814.97;2616073;36;20035;-58
2022/12/30 06:20:16;;;;;;;17.60;3.25;;;;;;;5.31;100.00;100805.34;2615981;31;20287;-57
2022/12/30 06:22:44;;;;;;;10.20;3.23;;;;;;;5.22;100.00;100798.81;2616534;36;20041;-58
2022/12/30 06:25:15;;;;;;;11.02;2.60;;;;;;;5.19;100.00;100796.34;2616133;36;20061;-59
2022/12/30 06:27:44;;;;;;;15.82;2.47;;;;;;;5.20;100.00;100787.41;2615953;36;20030;-58
2022/12/30 06:30:13;;;;;;;7.90;2.30;;;;;;;5.20;100.00;100803.41;2615326;31;20038;-58
2022/12/30 06:32:42;;;;;;;10.82;3.90;;;;;;;5.24;100.00;100799.56;2615864;36;20034;-58
2022/12/30 06:35:11;;;;;;;12.25;3.00;;;;;;;5.22;100.00;100805.97;2616236;36;20038;-60
2022/12/30 06:37:39;;;;;;;8.43;2.60;;;;;;;5.20;100.00;100813.22;2616357;36;20034;-60
2022/12/30 06:40:10;;;;;;;12.57;2.63;;;;;;;5.32;100.00;100816.88;2615782;36;20044;-60
2022/12/30 06:42:40;;;;;;;11.25;3.15;;;;;;;5.26;100.00;100800.31;2615023;36;20022;-60
2022/12/30 06:45:10;;;;;;;10.60;2.28;;;;;;;5.14;100.00;100800.28;2616484;36;20107;-60
2022/12/30 06:47:38;;;;;;;7.82;2.53;;;;;;;5.20;100.00;100787.41;2616212;36;20034;-60
2022/12/30 06:50:08;;;;;;;12.57;3.03;;;;;;;5.17;100.00;100792.94;2616668;36;20031;-59
2022/12/30 06:52:39;;;;;;;;;;;;;;;5.21;100.00;100775.78;2616896;54;20042;-59
2022/12/30 06:55:08;;;;;;;11.82;2.65;;;;;;;5.12;100.00;100776.38;2615793;36;19957;-59
2022/12/30 06:57:37;;;;;;;8.45;2.65;;;;;;;5.08;100.00;100770.41;2615100;36;20030;-59
2022/12/30 07:00:10;;;;;;;10.53;2.73;;;;;;;5.17;100.00;100774.25;2616122;31;20030;-59
2022/12/30 07:02:38;;;;;;;14.07;3.38;;;;;;;5.31;100.00;100769.81;2615796;31;20053;-59
2022/12/30 07:05:08;;;;;;;8.48;2.72;;;;;;;5.16;100.00;100763.69;2616286;36;20030;-59
2022/12/30 07:07:36;;;;;;;9.32;2.47;;;;;;;5.16;100.00;100756.53;2616302;36;20038;-60
2022/12/30 07:10:05;;;;;;;11.98;3.13;;;;;;;5.19;100.00;100758.16;2615133;36;20542;-60
2022/12/30 07:12:33;;;;;;;9.82;2.90;;;;;;;5.14;100.00;100750.47;2615910;36;20039;-59
2022/12/30 07:15:02;;;;;;;13.18;2.78;;;;;;;5.21;100.00;100746.41;2616621;36;20622;-59
2022/12/30 07:17:33;;;;;;;11.65;2.60;;;;;;;5.23;100.00;100744.50;2615961;36;20090;-59
2022/12/30 07:20:01;;;;;;;9.75;3.30;;;;;;;5.20;100.00;100742.03;2615912;36;20069;-59
2022/12/30 07:22:29;;;;;;;9.13;3.13;;;;;;;5.15;100.00;100732.63;2616321;36;20034;-59
2022/12/30 07:24:58;;;;;;;9.60;2.58;;;;;;;5.29;100.00;100743.22;2615524;36;20022;-59
2022/12/30 07:27:27;;;;;;;13.07;3.15;;;;;;;5.28;100.00;100732.66;2615793;36;20420;-59
2022/12/30 07:29:55;;;;;;;11.88;2.80;;;;;;;5.38;100.00;100741.75;2615407;36;20022;-58
2022/12/30 07:32:24;;;;;;;18.15;3.70;;;;;;;5.28;100.00;100736.16;2615840;31;20042;-59
2022/12/30 07:34:54;;;;;;;12.25;3.08;;;;;;;5.31;100.00;100735.94;2615749;36;20049;-58
2022/12/30 07:37:23;;;;;;;18.20;3.95;;;;;;;5.33;100.00;100735.84;2616218;36;20026;-59
2022/12/30 07:39:51;;;;;;;8.77;3.45;;;;;;;5.34;100.00;100725.06;2615713;36;20034;-59
2022/12/30 07:42:19;;;;;;;14.57;3.50;;;;;;;5.40;100.00;100718.44;2615839;36;20030;-60
2022/12/30 07:44:48;;;;;;;10.43;3.30;;;;;;;5.46;100.00;100727.84;2616120;36;20034;-59
2022/12/30 07:47:16;;;;;;;22.38;3.53;;;;;;;5.41;100.00;100725.50;2616145;36;20034;-59
2022/12/30 07:49:44;;;;;;;11.13;3.50;;;;;;;5.45;100.00;100713.66;2615900;36;20030;-59
2022/12/30 07:52:15;;;;;;;11.10;2.67;;;;;;;5.49;100.00;100711.63;2615796;36;20653;-59
2022/12/30 07:54:46;;;;;;;16.25;4.20;;;;;;;5.50;100.00;100697.31;2614849;36;20034;-59
2022/12/30 07:57:15;;;;;;;10.45;3.28;;;;;;;5.58;100.00;100687.81;2615748;36;20030;-60
2022/12/30 07:59:43;;;;;;;7.90;2.95;;;;;;;5.61;100.00;100689.44;2616213;36;20034;-60
2022/12/30 08:02:13;;;;;;;10.50;3.10;;;;;;;5.57;100.00;100687.94;2614956;36;20030;-59
2022/12/30 08:04:41;;;;;;;15.32;2.78;;;;;;;5.62;100.00;100680.44;2615846;36;20034;-59
2022/12/30 08:07:10;;;;;;;13.57;3.20;;;;;;;5.69;100.00;100670.19;2616254;31;20053;-59
2022/12/30 08:09:41;;;;;;;10.27;3.15;;;;;;;5.66;100.00;100663.25;2614836;36;20022;-59
2022/12/30 08:12:09;;;;;;;12.77;3.10;;;;;;;5.68;100.00;100658.63;2616207;36;20061;-58
2022/12/30 08:14:38;;;;;;;13.52;4.38;;;;;;;5.64;100.00;100650.94;2615940;36;20034;-59
2022/12/30 08:17:06;;;;;;;11.87;2.90;;;;;;;5.67;100.00;100658.75;2616059;36;20029;-60
2022/12/30 08:19:34;;;;;;;10.02;3.08;;;;;;;5.65;100.00;100658.00;2615736;36;20034;-60
2022/12/30 08:22:03;;;;;;;10.95;3.40;;;;;;;5.83;100.00;100661.16;2616831;36;20030;-58
2022/12/30 08:24:31;;;;;;;10.18;4.22;;;;;;;5.77;100.00;100654.44;2613012;36;20031;-59
2022/12/30 08:27:02;;;;;;;10.15;2.78;;;;;;;5.85;100.00;100649.41;2615851;36;20027;-59
2022/12/30 08:29:30;;;;;;;15.05;3.85;;;;;;;5.81;100.00;100645.25;2614929;36;20034;-60
2022/12/30 08:31:59;;;;;;;9.70;2.90;;;;;;;5.92;100.00;100641.81;2615000;36;20041;-58
2022/12/30 08:34:28;;;;;;;10.32;2.92;;;;;;;5.85;100.00;100622.72;2615112;36;20022;-60
2022/12/30 08:36:57;;;;;;;14.07;2.90;;;;;;;5.93;100.00;100609.66;2615178;36;20034;-59
2022/12/30 08:39:25;;;;;;;10.88;3.08;;;;;;;5.97;100.00;100615.66;2615676;36;20037;-59
2022/12/30 08:41:54;;;;;;;12.65;3.75;;;;;;;6.03;100.00;100599.16;2615409;36;20450;-58
2022/12/30 08:44:25;;;;;;;8.68;3.15;;;;;;;6.12;100.00;100595.84;2615361;31;20022;-60
2022/12/30 08:46:54;;;;;;;7.90;2.78;;;;;;;6.04;100.00;100594.69;2615283;36;20031;-58
2022/12/30 08:49:23;;;;;;;13.40;3.78;;;;;;;6.09;100.00;100604.03;2615439;36;20435;-58
2022/12/30 08:51:51;;;;;;;13.63;3.47;;;;;;;6.11;100.00;100586.09;2614884;36;20034;-58
2022/12/30 08:54:20;;;;;;;9.57;2.78;;;;;;;6.21;100.00;100606.78;2614471;36;20031;-59
2022/12/30 08:56:49;;;;;;;8.77;3.85;;;;;;;6.25;100.00;100600.25;2615373;36;20035;-59
2022/12/30 08:59:18;;;;;;;8.60;2.78;;;;;;;6.29;100.00;100602.56;2615781;36;20551;-57
2022/12/30 09:01:49;;;;;;;9.70;2.97;;;;;;;6.30;100.00;100593.59;2615044;36;20035;-58
2022/12/30 09:04:17;;;;;;;8.13;2.83;;;;;;;6.30;100.00;100590.94;2614431;31;20038;-57
2022/12/30 09:06:45;;;;;;;8.13;2.38;;;;;;;6.40;100.00;100590.22;2616420;36;20038;-58
2022/12/30 09:09:15;;;;;;;11.73;3.05;;;;;;;6.48;100.00;100579.81;2616085;36;20540;-57
2022/12/30 09:11:45;;;;;;;14.23;2.90;;;;;;;6.30;100.00;100569.53;2615713;36;20036;-58
2022/12/30 09:14:16;;;;;;;11.45;2.95;;;;;;;6.44;100.00;100583.69;2616056;36;20033;-58
2022/12/30 09:16:44;;;;;;;10.13;2.90;;;;;;;6.47;100.00;100586.13;2616241;36;20022;-58
2022/12/30 09:19:15;;;;;;;7.37;3.33;;;;;;;6.48;100.00;100580.66;2616300;31;20030;-58
2022/12/30 09:21:43;;;;;;;12.57;2.55;;;;;;;6.53;100.00;100580.31;2615405;36;20037;-58
2022/12/30 09:24:12;;;;;;;14.45;4.00;;;;;;;6.55;100.00;100570.38;2615250;36;20060;-58
2022/12/30 09:26:40;;;;;;;9.40;3.37;;;;;;;6.60;100.00;100572.69;2616382;36;20023;-58
2022/12/30 09:29:08;;;;;;;14.38;3.58;;;;;;;6.68;100.00;100553.34;2615006;36;20035;-59
2022/12/30 09:31:37;;;;;;;10.82;2.80;;;;;;;6.68;100.00;100553.34;2616904;31;20038;-59
2022/12/30 09:34:05;;;;;;;9.32;2.65;;;;;;;6.72;100.00;100536.94;2615730;36;20030;-59
2022/12/30 09:36:36;;;;;;;9.48;2.58;;;;;;;6.80;100.00;100544.38;2616324;36;20462;-59
2022/12/30 09:39:04;;;;;;;8.65;2.55;;;;;;;6.81;100.00;100535.38;2615419;36;20386;-59
2022/12/30 09:44:36;;;;;;;9.88;2.78;;;;;;;6.94;100.00;100529.94;2615665;36;20041;-59
2022/12/30 09:47:12;;;;;;;7.35;2.55;;;;;;;7.20;100.00;100527.88;2614229;36;20034;-59
2022/12/30 09:49:47;;;;;;;7.72;2.67;;;;;;;7.31;100.00;100535.88;2615450;36;20566;-58
2022/12/30 09:52:24;;;;;;;8.00;2.70;;;;;;;7.22;100.00;100511.69;2614538;36;20038;-60
2022/12/30 09:55:05;;;;;;;14.10;2.70;;;;;;;7.31;100.00;100501.06;2614994;36;20045;-59
2022/12/30 09:57:37;;;;;;;5.53;2.30;;;;;;;7.32;100.00;100499.25;2615174;36;20022;-59
2022/12/30 10:00:15;;;;;;;12.10;2.15;;;;;;;7.32;100.00;100485.88;2615169;36;20561;-59
2022/12/30 10:03:04;;;;;;;8.80;2.58;;;;;;;7.39;100.00;100465.66;2614608;36;20038;-59
2022/12/30 10:05:41;;;;;;;10.50;3.05;;;;;;;7.54;100.00;100483.16;2615750;31;20031;-59
2022/12/30 10:08:25;;;;;;;8.65;2.22;;;;;;;7.51;100.00;100474.53;2614406;36;20418;-58
2022/12/30 10:10:59;;;;;;;9.73;2.70;;;;;;;7.60;100.00;100468.41;2614852;31;20042;-59
2022/12/30 10:13:35;;;;;;;5.50;2.40;;;;;;;7.60;100.00;100463.03;2615519;31;20895;-60
2022/12/30 10:16:10;;;;;;;6.05;1.75;;;;;;;7.56;100.00;100461.59;2616237;36;20533;-59
2022/12/30 10:19:04;;;;;;;5.93;2.63;;;;;;;7.70;100.00;100458.63;2615302;36;20030;-59
2022/12/30 10:21:45;;;;;;;10.85;2.92;;;;;;;7.66;100.00;100451.81;2615732;36;20546;-57
2022/12/30 10:24:36;;;;;;;7.18;2.25;;;;;;;7.79;100.00;100461.50;2615682;36;20034;-60
2022/12/30 10:27:15;;;;;;;7.28;2.33;;;;;;;7.72;100.00;100451.31;2614784;36;20034;-59
2022/12/30 10:29:46;;;;;;;5.82;1.98;;;;;;;7.82;100.00;100445.19;2616069;36;20122;-58
2022/12/30 10:32:21;;;;;;;8.13;1.88;;;;;;;7.85;100.00;100435.06;2614205;36;20057;-59
2022/12/30 10:34:53;;;;;;;3.70;2.30;;;;;;;7.96;100.00;100428.78;2615241;36;20458;-59
2022/12/30 10:37:32;;;;;;;6.28;1.67;;;;;;;8.04;100.00;100412.91;2614831;36;20112;-61
2022/12/30 10:40:09;;;;;;;11.70;2.38;;;;;;;8.01;100.00;100418.53;2614993;36;20439;-60
2022/12/30 10:42:56;;;;;;;6.05;1.80;;;;;;;8.16;100.00;100399.44;2615165;36;20042;-60
2022/12/30 10:45:40;;;;;;;5.20;1.60;;;;;;;8.12;100.00;100387.28;2614399;36;20034;-58
2022/12/30 10:48:26;;;;;;;7.72;1.80;;;;;;;8.14;100.00;100366.53;2614743;36;20034;-58
2022/12/30 10:50:56;;;;;;;11.30;1.90;;;;;;;8.11;100.00;100356.09;2613399;36;20046;-58
2022/12/30 10:53:27;;;;;;;9.18;2.20;;;;;;;8.17;100.00;100343.03;2613950;36;20566;-58
2022/12/30 10:56:00;;;;;;;3.15;2.05;;;;;;;8.26;100.00;100333.34;2613496;36;20411;-60
2022/12/30 10:58:32;;;;;;;7.03;2.10;;;;;;;8.31;100.00;100333.75;2614775;36;20038;-59
2022/12/30 11:01:02;;;;;;;5.07;1.80;;;;;;;8.39;100.00;100303.59;2615715;36;20039;-60
2022/12/30 11:03:39;;;;;;;7.50;1.98;;;;;;;8.28;100.00;100312.59;2615781;36;20038;-59
2022/12/30 11:06:25;;;;;;;7.53;1.63;;;;;;;8.23;100.00;100293.38;2616228;36;20465;-59
2022/12/30 11:08:55;;;;;;;5.03;1.67;;;;;;;8.29;100.00;100278.56;2616001;36;20030;-60
2022/12/30 11:14:42;;;;;;;4.75;1.95;;;;;;;8.24;100.00;100289.69;2616004;36;20033;-58
2022/12/30 11:17:10;;;;;;;5.50;1.88;;;;;;;8.24;100.00;100263.75;2615792;31;20038;-59
2022/12/30 11:19:38;;;;;;;4.35;1.65;;;;;;;8.28;100.00;100250.09;2615186;36;20045;-58
2022/12/30 11:22:07;;;;;;;7.38;1.98;;;;;;;8.28;100.00;100242.03;2616535;31;20388;-59
2022/12/30 11:24:35;;;;;;;5.20;2.00;;;;;;;8.07;100.00;100230.38;2615458;36;20038;-60
2022/12/30 11:27:07;;;;;;;3.87;1.60;;;;;;;8.17;100.00;100227.75;2615891;36;20022;-58
2022/12/30 11:29:36;;;;;;;5.05;1.80;;;;;;;8.30;100.00;100219.44;2616055;36;20042;-58
2022/12/30 11:32:12;;;;;;;7.80;2.03;;;;;;;8.30;100.00;100205.19;2615303;31;20697;-59
2022/12/30 11:34:42;;;;;;;5.60;1.77;;;;;;;8.25;100.00;100185.00;2615018;36;20030;-59
2022/12/30 11:37:27;;;;;;;6.60;1.98;;;;;;;8.25;100.00;100181.50;2614751;36;20027;-59
2022/12/30 11:39:55;;;;;;;5.28;1.80;;;;;;;8.29;100.00;100176.69;2616198;36;20423;-59
2022/12/30 11:42:33;;;;;;;5.22;1.83;;;;;;;8.33;100.00;100162.91;2615499;36;20045;-58
2022/12/30 11:45:18;;;;;;;5.57;1.85;;;;;;;8.29;100.00;100160.59;2615414;36;20038;-59
2022/12/30 11:47:47;;;;;;;4.38;1.73;;;;;;;8.26;100.00;100137.63;2615125;36;20041;-60
2022/12/30 11:50:20;;;;;;;;;;;;;;;8.41;100.00;100141.56;2615977;36;20026;-59
2022/12/30 11:52:58;;;;;;;4.97;1.50;;;;;;;8.36;100.00;100116.16;2614863;36;20046;-59
2022/12/30 11:55:28;;;;;;;7.07;2.07;;;;;;;8.30;100.00;100101.47;2615372;36;20037;-59
2022/12/30 11:58:00;;;;;;;;;;;;;;;8.37;100.00;100121.38;2616151;36;20038;-60
2022/12/30 12:00:37;;;;;;;4.75;1.52;;;;;;;8.44;100.00;100102.94;2616210;31;19969;-59
2022/12/30 12:03:08;;;;;;;6.95;2.50;;;;;;;8.37;100.00;100091.88;2615514;36;20612;-59
2022/12/30 12:05:42;;;;;;;6.40;1.73;;;;;;;8.38;100.00;100082.88;2616603;36;20459;-59
2022/12/30 12:08:17;;;;;;;5.28;1.58;;;;;;;8.45;100.00;100071.59;2615719;36;20082;-58
2022/12/30 12:10:53;;;;;;;11.55;2.42;;;;;;;8.51;100.00;100065.66;2616021;36;20045;-60
2022/12/30 12:13:33;;;;;;;5.18;1.70;;;;;;;8.54;100.00;100044.78;2615745;36;20463;-59
2022/12/30 12:16:03;;;;;;;4.03;1.35;;;;;;;8.48;100.00;100039.13;2615725;31;20041;-59
2022/12/30 12:18:39;;;;;;;4.30;1.60;;;;;;;8.58;100.00;100037.28;2615152;36;20507;-60
2022/12/30 12:21:17;;;;;;;6.97;1.92;;;;;;;8.61;100.00;100012.84;2614836;36;20039;-60
2022/12/30 12:23:52;;;;;;;6.05;1.60;;;;;;;8.59;100.00;100009.47;2614082;36;20057;-58
2022/12/30 12:26:24;;;;;;;5.00;1.77;;;;;;;8.66;100.00;99999.88;2613519;36;20030;-59
2022/12/30 12:28:56;;;;;;;2.50;1.50;;;;;;;8.69;100.00;100001.41;2613927;36;20053;-59
2022/12/30 12:31:37;;;;;;;6.30;1.95;;;;;;;8.74;100.00;99985.72;2614449;31;20034;-59
2022/12/30 12:34:09;;;;;;;7.70;1.40;;;;;;;8.74;100.00;99980.34;2614438;36;20120;-59
2022/12/30 12:36:45;;;;;;;7.28;1.42;;;;;;;8.77;100.00;99970.19;2614385;36;20030;-59
2022/12/30 12:39:17;;;;;;;5.63;1.50;;;;;;;8.73;100.00;99958.06;2614976;36;20042;-61
2022/12/30 12:41:54;;;;;;;4.32;1.60;;;;;;;8.85;100.00;99963.22;2615521;36;20049;-59
2022/12/30 12:44:44;;;;;;;5.82;1.63;;;;;;;8.88;100.00;99966.47;2614449;31;20030;-59